Terminal Aerodrome Forecast
Issued by NWS

Home | Current Version | Previous Version | Text Only | Print | Product List | Glossary On
Versions: 1 2 3 4 5 6 7 8 9 10 11 12 13 14 15 16 17 18 19 20 21 22 23 24 25 26 27 28 29
000
FTUS43 KDLH 220824 AAA
TAFHIB
TAF AMD
KHIB 220824Z 2208/2306 27005KT 6SM BR VCSH SCT007 OVC015
     FM221000 29006KT 6SM BR VCSH OVC007
     FM221300 30009KT 6SM BR VCSH OVC008
     FM221600 30010KT P6SM VCSH OVC012
     FM222000 30009KT P6SM VCSH SCT012 OVC025=

USA.gov is the U.S. government's official web portal to all federal, state and local government web resources and services.